createdAt,value
2022-11-06T00:00:30.170Z,0.00
2022-11-06T00:01:30.419Z,0.00
2022-11-06T00:02:30.483Z,0.00
2022-11-06T00:03:30.714Z,0.00
2022-11-06T00:04:30.740Z,0.00
2022-11-06T00:05:30.864Z,0.00
2022-11-06T00:06:30.987Z,0.00
2022-11-06T00:07:31.120Z,0.00
2022-11-06T00:08:31.257Z,0.00
2022-11-06T00:09:31.407Z,0.00
2022-11-06T00:10:31.537Z,0.00
2022-11-06T00:11:31.675Z,0.00
2022-11-06T00:12:31.826Z,0.00
2022-11-06T00:13:31.966Z,0.00
2022-11-06T00:14:32.175Z,0.00
2022-11-06T00:15:32.275Z,0.00
2022-11-06T00:16:32.422Z,0.00
2022-11-06T00:17:32.554Z,0.00
2022-11-06T00:18:32.687Z,0.00
2022-11-06T00:19:32.906Z,0.00
2022-11-06T00:20:32.954Z,0.00
2022-11-06T00:21:33.102Z,0.00
2022-11-06T00:22:33.244Z,0.00
2022-11-06T00:23:33.376Z,0.00
2022-11-06T00:24:33.515Z,0.00
2022-11-06T00:25:33.662Z,0.00
2022-11-06T00:26:33.812Z,0.00
2022-11-06T00:27:33.931Z,0.00
2022-11-06T00:28:34.032Z,0.00
2022-11-06T00:29:34.215Z,0.00
2022-11-06T00:30:34.264Z,0.00
2022-11-06T00:31:34.409Z,0.00
2022-11-06T00:32:34.610Z,0.00
2022-11-06T00:33:34.679Z,0.00
2022-11-06T00:34:34.816Z,0.00
2022-11-06T00:35:34.964Z,0.00
2022-11-06T00:36:35.093Z,0.00
2022-11-06T00:37:35.216Z,0.00
2022-11-06T00:38:35.339Z,0.00
2022-11-06T00:39:35.464Z,0.00
2022-11-06T00:40:37.004Z,0.00
2022-11-06T00:41:35.794Z,0.00
2022-11-06T00:42:35.851Z,0.00
2022-11-06T00:43:35.972Z,0.00
2022-11-06T00:44:36.106Z,0.00
2022-11-06T00:45:36.285Z,0.00
2022-11-06T00:46:36.426Z,0.00
2022-11-06T00:47:36.541Z,0.00
2022-11-06T00:48:36.673Z,0.00
2022-11-06T00:49:36.822Z,0.00
2022-11-06T00:50:36.999Z,0.00
2022-11-06T00:51:37.061Z,0.00
2022-11-06T00:52:37.201Z,0.00
2022-11-06T00:53:37.302Z,0.00
2022-11-06T00:54:37.433Z,0.00
2022-11-06T00:55:37.569Z,0.00
2022-11-06T00:56:37.942Z,0.00
2022-11-06T00:57:37.858Z,0.00
2022-11-06T00:58:38.010Z,0.00
2022-11-06T00:59:38.133Z,0.00
2022-11-06T01:00:38.263Z,0.00
2022-11-06T01:01:38.546Z,0.00
2022-11-06T01:02:38.739Z,0.00
2022-11-06T01:03:38.672Z,0.00
2022-11-06T01:04:38.803Z,0.00
2022-11-06T01:05:38.943Z,0.00
2022-11-06T01:06:39.090Z,0.00
2022-11-06T01:07:39.230Z,0.00
2022-11-06T01:08:39.382Z,0.00
2022-11-06T01:09:39.510Z,0.00
2022-11-06T01:10:39.639Z,0.00
2022-11-06T01:12:06.839Z,0.00
2022-11-06T01:12:40.984Z,0.00
2022-11-06T01:13:40.118Z,0.00
2022-11-06T01:14:40.256Z,0.00
2022-11-06T01:15:40.372Z,0.00
2022-11-06T01:16:40.551Z,0.00
2022-11-06T01:17:40.652Z,0.00
2022-11-06T01:18:40.793Z,0.00
2022-11-06T01:19:40.941Z,0.00
2022-11-06T01:20:41.079Z,0.00
2022-11-06T01:21:41.233Z,0.00
2022-11-06T01:22:41.373Z,0.00
2022-11-06T01:23:41.509Z,0.00
2022-11-06T01:24:41.672Z,0.00
2022-11-06T01:25:41.788Z,0.00
2022-11-06T01:26:58.543Z,0.00
2022-11-06T01:27:43.112Z,0.00
2022-11-06T01:28:42.227Z,0.00
2022-11-06T01:29:42.380Z,0.00
2022-11-06T01:30:42.558Z,0.00
2022-11-06T01:31:43.881Z,0.00
2022-11-06T01:32:42.830Z,0.00
2022-11-06T01:33:43.540Z,0.00
2022-11-06T01:34:43.093Z,0.00
2022-11-06T01:35:43.250Z,0.00
2022-11-06T01:36:44.848Z,0.00
2022-11-06T01:37:43.538Z,0.00
2022-11-06T01:38:43.660Z,0.00
2022-11-06T01:39:43.779Z,0.00
2022-11-06T01:40:43.938Z,0.00
2022-11-06T01:41:44.068Z,0.00
2022-11-06T01:42:44.262Z,0.00
2022-11-06T01:43:44.297Z,0.00
2022-11-06T01:44:44.423Z,0.00
2022-11-06T01:45:44.540Z,0.00
2022-11-06T01:46:44.665Z,0.00
2022-11-06T01:47:44.826Z,0.00
2022-11-06T01:48:45.007Z,0.00
2022-11-06T01:49:45.199Z,0.00
2022-11-06T01:50:45.338Z,0.00
2022-11-06T01:51:45.425Z,0.00
2022-11-06T01:52:45.568Z,0.00
2022-11-06T01:53:45.707Z,0.00
2022-11-06T01:54:45.894Z,0.00
2022-11-06T01:55:46.015Z,0.00
2022-11-06T01:56:46.149Z,0.00
2022-11-06T01:57:46.309Z,0.00
2022-11-06T01:58:46.434Z,0.00
2022-11-06T01:59:46.567Z,0.00
2022-11-06T02:00:46.728Z,0.00
2022-11-06T02:01:47.714Z,0.00
2022-11-06T02:02:47.111Z,0.00
2022-11-06T02:03:47.123Z,0.00
2022-11-06T02:04:47.281Z,0.00
2022-11-06T02:05:47.449Z,0.00
2022-11-06T02:06:47.556Z,0.00
2022-11-06T02:07:47.682Z,0.00
2022-11-06T02:08:47.859Z,0.00
2022-11-06T02:09:48.026Z,0.00
2022-11-06T02:10:48.183Z,0.00
2022-11-06T02:11:48.332Z,0.00
2022-11-06T02:12:48.486Z,0.00
2022-11-06T02:13:48.625Z,0.00
2022-11-06T02:14:48.768Z,0.00
2022-11-06T02:15:48.859Z,0.00
2022-11-06T02:16:49.006Z,0.00
2022-11-06T02:17:49.135Z,0.00
2022-11-06T02:18:49.364Z,0.00
2022-11-06T02:19:49.444Z,0.00
2022-11-06T02:20:49.596Z,0.00
2022-11-06T02:21:49.754Z,0.00
2022-11-06T02:22:49.884Z,0.00
2022-11-06T02:23:50.005Z,0.00
2022-11-06T02:24:50.875Z,0.00
2022-11-06T02:25:50.334Z,0.00
2022-11-06T02:26:50.459Z,0.00
2022-11-06T02:27:50.574Z,0.00
2022-11-06T02:28:50.715Z,0.00
2022-11-06T02:29:50.883Z,0.00
2022-11-06T02:30:51.053Z,0.00
2022-11-06T02:31:51.188Z,0.00
2022-11-06T02:32:51.343Z,0.00
2022-11-06T02:33:51.475Z,0.00
2022-11-06T02:34:51.621Z,0.00
2022-11-06T02:35:51.793Z,0.00
2022-11-06T02:36:51.922Z,0.00
2022-11-06T02:37:52.053Z,0.00
2022-11-06T02:38:52.182Z,0.00
2022-11-06T02:39:52.350Z,0.00
2022-11-06T02:40:52.543Z,0.00
2022-11-06T02:41:52.691Z,0.00
2022-11-06T02:42:52.878Z,0.00
2022-11-06T02:43:52.985Z,0.00
2022-11-06T02:44:53.120Z,0.00
2022-11-06T02:45:53.291Z,0.00
2022-11-06T02:46:53.371Z,0.00
2022-11-06T02:47:53.512Z,0.00
2022-11-06T02:48:53.631Z,0.00
2022-11-06T02:49:53.759Z,0.00
2022-11-06T02:50:53.959Z,0.00
2022-11-06T02:51:54.092Z,0.00
2022-11-06T02:52:54.222Z,0.00
2022-11-06T02:53:54.360Z,0.00
2022-11-06T02:54:54.512Z,0.00
2022-11-06T02:55:54.713Z,0.00
2022-11-06T02:56:54.805Z,0.00
2022-11-06T02:57:54.946Z,0.00
2022-11-06T02:58:55.049Z,0.00
2022-11-06T02:59:55.213Z,0.00
2022-11-06T03:00:55.340Z,0.00
2022-11-06T03:01:55.635Z,0.00
2022-11-06T03:02:55.765Z,0.00
2022-11-06T03:03:55.729Z,0.00
2022-11-06T03:04:55.848Z,0.00
2022-11-06T03:05:56.004Z,0.00
2022-11-06T03:06:56.189Z,0.00
2022-11-06T03:07:56.329Z,0.00
2022-11-06T03:08:56.428Z,0.00
2022-11-06T03:09:56.629Z,0.00
2022-11-06T03:10:57.290Z,0.00
2022-11-06T03:11:56.878Z,0.00
2022-11-06T03:12:57.037Z,0.00
2022-11-06T03:13:57.187Z,0.00
2022-11-06T03:14:57.341Z,0.00
2022-11-06T03:15:57.490Z,0.00
2022-11-06T03:16:57.645Z,0.00
2022-11-06T03:17:57.806Z,0.00
2022-11-06T03:18:57.905Z,0.00
2022-11-06T03:19:58.050Z,0.00
2022-11-06T03:20:58.190Z,0.00
2022-11-06T03:21:58.386Z,0.00
2022-11-06T03:22:58.425Z,0.00
2022-11-06T03:23:58.617Z,0.00
2022-11-06T03:24:58.755Z,0.00
2022-11-06T03:25:58.908Z,0.00
2022-11-06T03:26:59.057Z,0.00
2022-11-06T03:27:59.217Z,0.00
2022-11-06T03:28:59.359Z,0.00
2022-11-06T03:30:00.447Z,0.00
2022-11-06T03:30:59.634Z,0.00
2022-11-06T03:31:59.774Z,0.00
2022-11-06T03:32:59.996Z,0.00
2022-11-06T03:34:01.387Z,0.00
2022-11-06T03:35:00.275Z,0.00
2022-11-06T03:36:00.407Z,0.00
2022-11-06T03:37:00.528Z,0.00
2022-11-06T03:38:00.686Z,0.00
2022-11-06T03:39:00.806Z,0.00
2022-11-06T03:40:00.973Z,0.00
2022-11-06T03:41:01.096Z,0.00
2022-11-06T03:42:01.247Z,0.00
2022-11-06T03:43:01.478Z,0.00
2022-11-06T03:44:01.521Z,0.00
2022-11-06T03:45:01.657Z,0.00
2022-11-06T03:46:01.777Z,0.00
2022-11-06T03:47:01.912Z,0.00
2022-11-06T03:48:02.081Z,0.00
2022-11-06T03:49:02.196Z,0.00
2022-11-06T03:50:02.352Z,0.00
2022-11-06T03:51:02.447Z,0.00
2022-11-06T03:52:02.567Z,0.00
2022-11-06T03:53:03.261Z,0.00
2022-11-06T03:54:02.793Z,0.00
2022-11-06T03:55:02.948Z,0.00
2022-11-06T03:56:03.094Z,0.00
2022-11-06T03:57:03.261Z,0.00
2022-11-06T03:58:03.393Z,0.00
2022-11-06T03:59:04.386Z,0.00
2022-11-06T04:00:03.694Z,0.00
2022-11-06T04:01:03.785Z,0.00
2022-11-06T04:02:04.087Z,0.00
2022-11-06T04:03:04.077Z,0.00
2022-11-06T04:04:04.146Z,0.00
2022-11-06T04:05:04.295Z,0.00
2022-11-06T04:06:04.393Z,0.00
2022-11-06T04:07:04.520Z,0.00
2022-11-06T04:08:04.663Z,0.00
2022-11-06T04:09:04.802Z,0.00
2022-11-06T04:10:04.941Z,0.00
2022-11-06T04:12:07.424Z,0.00
2022-11-06T04:13:07.540Z,0.00
2022-11-06T04:14:07.668Z,0.00
2022-11-06T04:15:07.767Z,0.00
2022-11-06T04:16:07.958Z,0.00
2022-11-06T04:17:08.073Z,0.00
2022-11-06T04:18:08.272Z,0.00
2022-11-06T04:19:08.368Z,0.00
2022-11-06T04:20:08.511Z,0.00
2022-11-06T04:21:08.629Z,0.00
2022-11-06T04:22:08.769Z,0.00
2022-11-06T04:23:08.911Z,0.00
2022-11-06T04:24:09.079Z,0.00
2022-11-06T04:25:09.190Z,0.00
2022-11-06T04:26:09.369Z,0.00
2022-11-06T04:27:09.428Z,0.00
2022-11-06T04:28:09.539Z,0.00
2022-11-06T04:29:09.669Z,0.00
2022-11-06T04:30:09.789Z,0.00
2022-11-06T04:31:09.921Z,0.00
2022-11-06T04:32:10.048Z,0.00
2022-11-06T04:33:10.182Z,0.00
2022-11-06T04:34:10.321Z,0.00
2022-11-06T04:35:10.451Z,0.00
2022-11-06T04:36:10.630Z,0.00
2022-11-06T04:37:10.759Z,0.00
2022-11-06T04:38:11.344Z,0.00
2022-11-06T04:39:11.005Z,0.00
2022-11-06T04:40:11.137Z,0.00
2022-11-06T04:41:11.282Z,0.00
2022-11-06T04:42:11.508Z,0.00
2022-11-06T04:43:11.517Z,0.00
2022-11-06T04:44:11.647Z,0.00
2022-11-06T04:45:11.778Z,0.00
2022-11-06T04:46:11.878Z,0.00
2022-11-06T04:47:12.082Z,0.00
2022-11-06T04:48:12.614Z,0.00
2022-11-06T04:49:12.364Z,0.00
2022-11-06T04:50:12.541Z,0.00
2022-11-06T04:51:12.679Z,0.00
2022-11-06T04:52:12.788Z,0.00
2022-11-06T04:53:12.929Z,0.00
2022-11-06T04:54:13.095Z,0.00
2022-11-06T04:55:13.238Z,0.00
2022-11-06T04:56:15.526Z,0.00
2022-11-06T04:57:13.534Z,0.00
2022-11-06T04:58:13.891Z,0.00
2022-11-06T04:59:13.758Z,0.00
2022-11-06T05:00:13.877Z,0.00
2022-11-06T05:01:14.062Z,0.00
2022-11-06T05:02:14.247Z,0.00
2022-11-06T05:03:14.296Z,0.00
2022-11-06T05:04:14.405Z,0.00
2022-11-06T05:05:14.558Z,0.00
2022-11-06T05:06:14.677Z,0.00
2022-11-06T05:07:14.845Z,0.00
2022-11-06T05:08:15.198Z,0.00
2022-11-06T05:09:15.077Z,0.00
2022-11-06T05:10:15.195Z,0.00
2022-11-06T05:11:15.325Z,0.00
2022-11-06T05:12:15.445Z,0.00
2022-11-06T05:13:15.583Z,0.00
2022-11-06T05:14:15.696Z,0.00
2022-11-06T05:15:15.817Z,0.00
2022-11-06T05:16:15.947Z,0.00
2022-11-06T05:17:16.066Z,0.00
2022-11-06T05:18:16.654Z,0.00
2022-11-06T05:19:16.312Z,0.00
2022-11-06T05:20:16.455Z,0.00
2022-11-06T05:21:16.586Z,0.00
2022-11-06T05:22:16.703Z,0.00
2022-11-06T05:23:16.821Z,0.00
2022-11-06T05:24:17.001Z,0.00
2022-11-06T05:25:17.162Z,0.00
2022-11-06T05:26:17.303Z,0.00
2022-11-06T05:27:17.434Z,0.00
2022-11-06T05:28:17.625Z,0.00
2022-11-06T05:29:17.755Z,0.00
2022-11-06T05:30:17.895Z,0.00
2022-11-06T05:31:18.053Z,0.00
2022-11-06T05:32:18.194Z,0.00
2022-11-06T05:33:18.324Z,0.00
2022-11-06T05:34:18.440Z,0.00
2022-11-06T05:35:18.574Z,0.00
2022-11-06T05:36:18.754Z,0.00
2022-11-06T05:37:18.895Z,0.00
2022-11-06T05:38:19.045Z,0.00
2022-11-06T05:39:19.174Z,0.00
2022-11-06T05:40:19.315Z,0.00
2022-11-06T05:41:19.464Z,0.00
2022-11-06T05:42:19.605Z,0.00
2022-11-06T05:43:19.730Z,0.00
2022-11-06T05:44:19.843Z,0.00
2022-11-06T05:45:19.992Z,0.00
2022-11-06T05:46:42.829Z,0.00
2022-11-06T05:47:21.231Z,0.00
2022-11-06T05:48:20.339Z,0.00
2022-11-06T05:49:20.460Z,0.00
2022-11-06T05:50:20.673Z,0.00
2022-11-06T05:51:20.817Z,0.00
2022-11-06T05:52:20.862Z,0.00
2022-11-06T05:53:20.982Z,0.00
2022-11-06T05:54:21.109Z,0.00
2022-11-06T05:55:21.276Z,0.00
2022-11-06T05:56:21.422Z,0.00
2022-11-06T05:57:21.582Z,0.00
2022-11-06T05:58:21.702Z,0.00
2022-11-06T05:59:21.821Z,0.00
2022-11-06T06:00:21.994Z,0.00
2022-11-06T06:01:22.185Z,0.00
2022-11-06T06:02:22.348Z,0.00
2022-11-06T06:03:22.415Z,0.00
2022-11-06T06:04:22.531Z,0.00
2022-11-06T06:05:22.690Z,0.00
2022-11-06T06:06:22.928Z,0.00
2022-11-06T06:07:23.011Z,0.00
2022-11-06T06:08:23.130Z,0.00
2022-11-06T06:09:23.258Z,0.00
2022-11-06T06:10:23.369Z,0.00
2022-11-06T06:11:23.523Z,0.00
2022-11-06T06:12:23.652Z,0.00
2022-11-06T06:13:23.788Z,0.00
2022-11-06T06:14:23.914Z,0.00
2022-11-06T06:15:24.060Z,0.00
2022-11-06T06:16:24.199Z,0.00
2022-11-06T06:17:24.350Z,0.00
2022-11-06T06:18:24.480Z,0.00
2022-11-06T06:19:24.611Z,0.00
2022-11-06T06:20:24.724Z,0.00
2022-11-06T06:21:24.861Z,0.00
2022-11-06T06:22:25.060Z,0.00
2022-11-06T06:23:25.187Z,5.62
2022-11-06T06:24:25.383Z,5.62
2022-11-06T06:25:25.516Z,5.62
2022-11-06T06:26:25.661Z,5.62
2022-11-06T06:27:25.800Z,5.62
2022-11-06T06:28:25.887Z,5.62
2022-11-06T06:29:26.031Z,11.25
2022-11-06T06:30:26.188Z,11.25
2022-11-06T06:31:26.307Z,11.25
2022-11-06T06:32:26.440Z,11.25
2022-11-06T06:33:26.566Z,11.25
2022-11-06T06:34:26.689Z,16.88
2022-11-06T06:35:26.817Z,16.88
2022-11-06T06:36:26.990Z,16.88
2022-11-06T06:37:27.129Z,16.88
2022-11-06T06:38:27.270Z,22.50
2022-11-06T06:39:27.406Z,22.50
2022-11-06T06:40:27.516Z,22.50
2022-11-06T06:41:27.676Z,22.50
2022-11-06T06:42:31.222Z,28.12
2022-11-06T06:43:27.937Z,28.12
2022-11-06T06:44:28.057Z,28.12
2022-11-06T06:45:28.217Z,33.75
2022-11-06T06:46:28.359Z,33.75
2022-11-06T06:47:28.506Z,33.75
2022-11-06T06:48:28.596Z,39.38
2022-11-06T06:49:28.739Z,39.38
2022-11-06T06:50:28.847Z,39.38
2022-11-06T06:51:28.977Z,45.00
2022-11-06T06:52:29.138Z,45.00
2022-11-06T06:53:29.268Z,50.62
2022-11-06T06:54:29.388Z,50.62
2022-11-06T06:55:29.521Z,50.62
2022-11-06T06:56:29.638Z,56.25
2022-11-06T06:57:29.776Z,56.25
2022-11-06T06:58:29.898Z,56.25
2022-11-06T06:59:30.054Z,61.88
2022-11-06T07:00:30.262Z,61.88
2022-11-06T07:01:30.485Z,61.88
2022-11-06T07:02:30.628Z,67.50
2022-11-06T07:03:30.756Z,67.50
2022-11-06T07:04:30.811Z,73.12
2022-11-06T07:05:30.957Z,73.12
2022-11-06T07:06:31.070Z,73.12
2022-11-06T07:07:31.243Z,78.75
2022-11-06T07:08:32.314Z,78.75
2022-11-06T07:09:31.496Z,78.75
2022-11-06T07:10:31.625Z,84.38
2022-11-06T07:11:31.761Z,84.38
2022-11-06T07:12:31.915Z,84.38
2022-11-06T07:13:35.818Z,90.00
2022-11-06T07:14:32.216Z,90.00
2022-11-06T07:15:32.398Z,90.00
2022-11-06T07:16:32.456Z,95.62
2022-11-06T07:17:32.713Z,95.62
2022-11-06T07:18:32.746Z,95.62
2022-11-06T07:19:32.908Z,101.25
2022-11-06T07:20:33.024Z,101.25
2022-11-06T07:21:33.168Z,101.25
2022-11-06T07:22:37.229Z,101.25
2022-11-06T07:23:33.447Z,106.88
2022-11-06T07:24:33.532Z,106.88
2022-11-06T07:25:33.661Z,106.88
2022-11-06T07:26:33.784Z,112.50
2022-11-06T07:27:33.953Z,112.50
2022-11-06T07:28:34.061Z,112.50
2022-11-06T07:29:34.213Z,118.12
2022-11-06T07:30:34.311Z,118.12
2022-11-06T07:31:34.443Z,118.12
2022-11-06T07:32:34.562Z,118.12
2022-11-06T07:33:34.708Z,123.75
2022-11-06T07:34:34.870Z,123.75
2022-11-06T07:35:35.002Z,123.75
2022-11-06T07:36:35.123Z,129.38
2022-11-06T07:37:35.261Z,129.38
2022-11-06T07:38:35.430Z,129.38
2022-11-06T07:39:35.583Z,135.00
2022-11-06T07:40:35.711Z,135.00
2022-11-06T07:41:35.830Z,140.62
2022-11-06T07:42:40.704Z,140.62
2022-11-06T07:43:37.154Z,146.25
2022-11-06T07:44:36.231Z,151.88
2022-11-06T07:45:36.370Z,151.88
2022-11-06T07:46:36.470Z,157.50
2022-11-06T07:47:37.559Z,157.50
2022-11-06T07:48:36.783Z,157.50
2022-11-06T07:49:37.010Z,163.12
2022-11-06T07:50:37.090Z,163.12
2022-11-06T07:51:37.172Z,163.12
2022-11-06T07:52:37.323Z,168.75
2022-11-06T07:53:37.479Z,168.75
2022-11-06T07:54:37.615Z,174.38
2022-11-06T07:55:41.946Z,174.38
2022-11-06T07:56:37.860Z,180.00
2022-11-06T07:57:38.001Z,180.00
2022-11-06T07:58:38.142Z,180.00
2022-11-06T07:59:38.331Z,185.62
2022-11-06T08:00:38.552Z,185.62
2022-11-06T08:01:38.729Z,191.25
2022-11-06T08:02:38.874Z,196.88
2022-11-06T08:03:38.928Z,202.50
2022-11-06T08:04:39.076Z,213.75
2022-11-06T08:05:39.242Z,219.38
2022-11-06T08:06:39.410Z,230.62
2022-11-06T08:07:39.491Z,236.25
2022-11-06T08:08:39.649Z,241.88
2022-11-06T08:09:39.798Z,247.50
2022-11-06T08:10:39.930Z,247.50
2022-11-06T08:11:40.028Z,247.50
2022-11-06T08:12:40.157Z,241.88
2022-11-06T08:13:40.313Z,241.88
2022-11-06T08:14:41.680Z,236.25
2022-11-06T08:15:40.558Z,230.62
2022-11-06T08:16:40.654Z,230.62
2022-11-06T08:17:40.799Z,230.62
2022-11-06T08:18:40.915Z,225.00
2022-11-06T08:19:41.089Z,225.00
2022-11-06T08:20:42.622Z,225.00
2022-11-06T08:21:41.318Z,225.00
2022-11-06T08:22:41.399Z,219.38
2022-11-06T08:23:41.547Z,219.38
2022-11-06T08:24:41.668Z,219.38
2022-11-06T08:25:41.767Z,225.00
2022-11-06T08:26:41.887Z,225.00
2022-11-06T08:27:42.062Z,225.00
2022-11-06T08:28:42.126Z,230.62
2022-11-06T08:29:42.226Z,230.62
2022-11-06T08:30:42.357Z,236.25
2022-11-06T08:31:42.468Z,236.25
2022-11-06T08:32:42.695Z,236.25
2022-11-06T08:33:42.740Z,236.25
2022-11-06T08:34:42.854Z,236.25
2022-11-06T08:35:42.987Z,236.25
2022-11-06T08:36:46.819Z,230.62
2022-11-06T08:37:44.194Z,230.62
2022-11-06T08:38:43.329Z,230.62
2022-11-06T08:39:43.496Z,230.62
2022-11-06T08:40:43.608Z,236.25
2022-11-06T08:41:43.701Z,236.25
2022-11-06T08:42:43.834Z,236.25
2022-11-06T08:43:43.979Z,241.88
2022-11-06T08:44:44.117Z,241.88
2022-11-06T08:45:44.289Z,241.88
2022-11-06T08:46:47.840Z,247.50
2022-11-06T08:47:45.551Z,247.50
2022-11-06T08:48:44.636Z,253.12
2022-11-06T08:49:44.765Z,253.12
2022-11-06T08:50:44.855Z,258.75
2022-11-06T08:51:44.994Z,264.38
2022-11-06T08:52:45.098Z,292.50
2022-11-06T08:53:45.294Z,832.50
2022-11-06T08:54:45.344Z,1957.50
2022-11-06T08:55:45.437Z,2655.00
2022-11-06T08:56:45.573Z,3178.12
2022-11-06T08:57:45.676Z,3515.62
2022-11-06T08:58:45.774Z,2711.25
2022-11-06T08:59:45.925Z,2368.12
2022-11-06T09:00:46.070Z,2306.25
2022-11-06T09:01:46.409Z,2143.12
2022-11-06T09:02:46.317Z,1873.12
2022-11-06T09:03:46.416Z,1906.88
2022-11-06T09:04:46.570Z,1912.50
2022-11-06T09:05:46.674Z,2019.38
2022-11-06T09:06:46.785Z,2137.50
2022-11-06T09:07:46.947Z,2216.25
2022-11-06T09:08:47.059Z,2109.38
2022-11-06T09:09:47.165Z,2115.00
2022-11-06T09:10:47.314Z,2188.12
2022-11-06T09:11:47.481Z,2278.12
2022-11-06T09:12:47.640Z,2244.38
2022-11-06T09:13:47.755Z,2373.75
2022-11-06T09:14:47.854Z,2289.38
2022-11-06T09:15:47.938Z,2036.25
2022-11-06T09:16:48.087Z,1923.75
2022-11-06T09:17:48.222Z,2210.62
2022-11-06T09:18:48.308Z,2244.38
2022-11-06T09:19:48.425Z,1985.62
2022-11-06T09:20:48.538Z,1743.75
2022-11-06T09:21:54.451Z,1693.12
2022-11-06T09:22:49.787Z,1625.62
2022-11-06T09:23:48.897Z,1316.25
2022-11-06T09:25:03.144Z,1530.00
2022-11-06T09:25:50.124Z,1119.38
2022-11-06T09:26:49.237Z,613.12
2022-11-06T09:27:53.051Z,551.25
2022-11-06T09:28:50.522Z,573.75
2022-11-06T09:29:50.237Z,556.88
2022-11-06T09:30:50.477Z,573.75
2022-11-06T09:31:49.878Z,613.12
2022-11-06T09:32:49.999Z,1074.38
2022-11-06T09:33:50.138Z,691.88
2022-11-06T09:34:50.282Z,573.75
2022-11-06T09:35:50.338Z,613.12
2022-11-06T09:36:50.477Z,776.25
2022-11-06T09:37:50.627Z,821.25
2022-11-06T09:38:50.831Z,675.00
2022-11-06T09:39:50.905Z,607.50
2022-11-06T09:40:51.070Z,601.88
2022-11-06T09:41:51.175Z,607.50
2022-11-06T09:42:51.295Z,590.62
2022-11-06T09:44:04.689Z,590.62
2022-11-06T09:44:52.525Z,551.25
2022-11-06T09:45:54.872Z,517.50
2022-11-06T09:46:51.799Z,500.62
2022-11-06T09:47:51.894Z,489.38
2022-11-06T09:48:52.066Z,478.12
2022-11-06T09:49:52.148Z,455.62
2022-11-06T09:50:52.308Z,438.75
2022-11-06T09:51:52.433Z,416.25
2022-11-06T09:52:52.534Z,410.62
2022-11-06T09:53:52.665Z,405.00
2022-11-06T09:54:56.966Z,393.75
2022-11-06T09:55:53.887Z,393.75
2022-11-06T09:56:53.003Z,388.12
2022-11-06T09:57:53.118Z,388.12
2022-11-06T09:58:53.349Z,388.12
2022-11-06T09:59:53.355Z,388.12
2022-11-06T10:00:53.506Z,388.12
2022-11-06T10:01:53.696Z,393.75
2022-11-06T10:02:53.843Z,393.75
2022-11-06T10:03:53.865Z,393.75
2022-11-06T10:04:53.977Z,393.75
2022-11-06T10:05:54.064Z,393.75
2022-11-06T10:06:54.228Z,399.38
2022-11-06T10:07:54.318Z,410.62
2022-11-06T10:08:54.484Z,416.25
2022-11-06T10:09:54.544Z,421.88
2022-11-06T10:10:54.696Z,433.12
2022-11-06T10:11:54.797Z,444.38
2022-11-06T10:12:54.918Z,455.62
2022-11-06T10:13:55.004Z,472.50
2022-11-06T10:14:55.165Z,489.38
2022-11-06T10:15:55.280Z,511.88
2022-11-06T10:16:55.451Z,540.00
2022-11-06T10:17:55.537Z,568.12
2022-11-06T10:18:55.706Z,613.12
2022-11-06T10:19:55.795Z,675.00
2022-11-06T10:20:55.915Z,753.75
2022-11-06T10:21:56.062Z,821.25
2022-11-06T10:22:56.215Z,900.00
2022-11-06T10:23:56.291Z,1006.88
2022-11-06T10:24:56.442Z,1153.12
2022-11-06T10:25:56.525Z,1518.75
2022-11-06T10:26:56.664Z,2053.12
2022-11-06T10:27:56.760Z,2671.88
2022-11-06T10:28:56.962Z,1704.38
2022-11-06T10:29:56.965Z,1406.25
2022-11-06T10:30:57.147Z,1642.50
2022-11-06T10:31:57.248Z,2244.38
2022-11-06T10:32:57.360Z,2013.75
2022-11-06T10:33:57.447Z,1912.50
2022-11-06T10:34:57.602Z,1299.38
2022-11-06T10:35:57.716Z,1040.62
2022-11-06T10:36:57.919Z,888.75
2022-11-06T10:37:58.040Z,838.12
2022-11-06T10:38:58.133Z,821.25
2022-11-06T10:39:58.227Z,821.25
2022-11-06T10:40:58.374Z,815.62
2022-11-06T10:41:58.484Z,798.75
2022-11-06T10:42:58.643Z,781.88
2022-11-06T10:43:58.717Z,759.38
2022-11-06T10:44:58.846Z,759.38
2022-11-06T10:45:58.966Z,759.38
2022-11-06T10:46:59.087Z,765.00
2022-11-06T10:47:59.202Z,765.00
2022-11-06T10:48:59.344Z,770.62
2022-11-06T10:49:59.426Z,793.12
2022-11-06T10:50:59.537Z,843.75
2022-11-06T10:51:59.657Z,916.88
2022-11-06T10:53:01.896Z,1046.25
2022-11-06T10:53:59.885Z,2711.25
2022-11-06T10:55:00.007Z,3015.00
2022-11-06T10:56:00.105Z,1755.00
2022-11-06T10:57:00.237Z,1395.00
2022-11-06T10:58:00.370Z,1760.62
2022-11-06T10:59:00.506Z,1670.62
2022-11-06T11:00:00.593Z,1923.75
2022-11-06T11:01:00.778Z,1715.62
2022-11-06T11:02:02.296Z,1580.62
2022-11-06T11:03:01.655Z,2227.50
2022-11-06T11:04:01.045Z,3695.62
2022-11-06T11:05:01.202Z,4393.12
2022-11-06T11:06:01.308Z,3875.62
2022-11-06T11:07:01.465Z,4005.00
2022-11-06T11:08:01.580Z,3965.62
2022-11-06T11:09:01.686Z,4151.25
2022-11-06T11:10:01.828Z,3510.00
2022-11-06T11:11:05.134Z,3318.75
2022-11-06T11:12:02.060Z,3301.88
2022-11-06T11:13:07.118Z,2643.75
2022-11-06T11:14:03.315Z,1850.62
2022-11-06T11:15:02.427Z,2694.38
2022-11-06T11:16:02.541Z,2503.12
2022-11-06T11:17:02.686Z,1811.25
2022-11-06T11:18:03.551Z,1091.25
2022-11-06T11:19:02.940Z,990.00
2022-11-06T11:20:03.050Z,956.25
2022-11-06T11:21:03.167Z,956.25
2022-11-06T11:22:03.271Z,984.38
2022-11-06T11:23:03.484Z,1006.88
2022-11-06T11:24:03.527Z,984.38
2022-11-06T11:25:03.682Z,990.00
2022-11-06T11:26:03.776Z,1012.50
2022-11-06T11:27:03.929Z,1231.88
2022-11-06T11:28:05.115Z,1338.75
2022-11-06T11:29:04.188Z,1293.75
2022-11-06T11:30:04.297Z,1451.25
2022-11-06T11:31:04.396Z,1333.12
2022-11-06T11:32:04.527Z,1361.25
2022-11-06T11:33:04.629Z,1181.25
2022-11-06T11:34:04.800Z,1080.00
2022-11-06T11:35:04.901Z,1096.88
2022-11-06T11:36:05.000Z,860.62
2022-11-06T11:37:05.128Z,911.25
2022-11-06T11:38:05.317Z,798.75
2022-11-06T11:39:05.451Z,579.38
2022-11-06T11:40:09.721Z,579.38
2022-11-06T11:41:06.653Z,635.62
2022-11-06T11:42:05.777Z,1141.88
2022-11-06T11:43:05.937Z,956.25
2022-11-06T11:44:06.094Z,1659.38
2022-11-06T11:45:06.199Z,1445.62
2022-11-06T11:46:06.354Z,1642.50
2022-11-06T11:47:09.177Z,2750.62
2022-11-06T11:48:06.576Z,1597.50
2022-11-06T11:49:06.698Z,1563.75
2022-11-06T11:50:06.808Z,1209.38
2022-11-06T11:51:06.939Z,1040.62
2022-11-06T11:52:07.020Z,894.38
2022-11-06T11:53:10.287Z,810.00
2022-11-06T11:54:07.281Z,725.62
2022-11-06T11:55:07.417Z,669.38
2022-11-06T11:56:07.511Z,618.75
2022-11-06T11:57:07.851Z,573.75
2022-11-06T11:58:07.717Z,545.62
2022-11-06T11:59:07.870Z,511.88
2022-11-06T12:00:07.988Z,478.12
2022-11-06T12:01:08.107Z,455.62
2022-11-06T12:02:08.349Z,433.12
2022-11-06T12:03:08.400Z,410.62
2022-11-06T12:04:08.460Z,399.38
2022-11-06T12:05:08.612Z,393.75
2022-11-06T12:06:08.706Z,388.12
2022-11-06T12:07:08.887Z,382.50
2022-11-06T12:08:08.948Z,382.50
2022-11-06T12:09:09.100Z,393.75
2022-11-06T12:10:09.207Z,371.25
2022-11-06T12:11:09.407Z,376.88
2022-11-06T12:12:09.480Z,382.50
2022-11-06T12:13:09.629Z,393.75
2022-11-06T12:14:09.729Z,410.62
2022-11-06T12:15:09.868Z,427.50
2022-11-06T12:16:10.019Z,444.38
2022-11-06T12:17:10.127Z,461.25
2022-11-06T12:18:10.367Z,472.50
2022-11-06T12:19:10.421Z,478.12
2022-11-06T12:20:10.499Z,478.12
2022-11-06T12:21:10.648Z,472.50
2022-11-06T12:22:10.773Z,461.25
2022-11-06T12:23:10.970Z,466.88
2022-11-06T12:24:10.976Z,472.50
2022-11-06T12:25:11.140Z,455.62
2022-11-06T12:26:11.229Z,421.88
2022-11-06T12:27:11.380Z,416.25
2022-11-06T12:28:11.683Z,427.50
2022-11-06T12:29:11.596Z,450.00
2022-11-06T12:30:11.678Z,461.25
2022-11-06T12:31:11.843Z,466.88
2022-11-06T12:32:11.924Z,472.50
2022-11-06T12:33:12.089Z,478.12
2022-11-06T12:34:17.174Z,495.00
2022-11-06T12:35:13.368Z,517.50
2022-11-06T12:36:12.496Z,545.62
2022-11-06T12:37:12.646Z,590.62
2022-11-06T12:38:13.194Z,624.38
2022-11-06T12:39:12.878Z,669.38
2022-11-06T12:40:13.038Z,697.50
2022-11-06T12:41:13.117Z,720.00
2022-11-06T12:42:13.260Z,765.00
2022-11-06T12:43:13.440Z,826.88
2022-11-06T12:44:13.525Z,939.38
2022-11-06T12:45:13.724Z,1136.25
2022-11-06T12:46:14.571Z,1541.25
2022-11-06T12:47:13.954Z,2070.00
2022-11-06T12:48:14.338Z,2379.38
2022-11-06T12:49:14.267Z,3065.62
2022-11-06T12:50:14.357Z,1878.75
2022-11-06T12:51:14.487Z,2851.88
2022-11-06T12:52:14.668Z,2278.12
2022-11-06T12:53:14.760Z,1608.75
2022-11-06T12:54:14.905Z,2840.62